EAG5511 SBCT-SAEZ
Flight info
| Callsign | EAG5511 |
|---|---|
| Flight time | 2h 14m |
| Altitude | 43000 |
| Route | PONLU DCT UMDEX UZ38 UMRUD UN741 PAPIX PAPIX7A |
| Aircraft | C700/M-SBDGHM1RWXY/LB2 |
Departure
| Time | 2026-05-05 17:16 |
|---|---|
| Airport | Curitiba-Afonso Pena International Airport (SBCT) |
Arrival
| Time | 2026-05-05 19:31 |
|---|---|
| Airport | Ezeiza International Airport - Ministro Pistarini (SAEZ) |
| Time | Latitude | Longitude | Altitude | Speed | Heading |
|---|---|---|---|---|---|
| 2026-05-05 17:11 | -25.53349 | -49.17364 | 2990 ft | 0 kts | 259° |
| 2026-05-05 17:13 | -25.53353 | -49.17367 | 2990 ft | 1 kts | 207° |
| 2026-05-05 17:14 | -25.53374 | -49.17341 | 2990 ft | 11 kts | 128° |
| 2026-05-05 17:14 | -25.53374 | -49.17254 | 2990 ft | 13 kts | 68° |
| 2026-05-05 17:14 | -25.53414 | -49.17167 | 2990 ft | 15 kts | 134° |
| 2026-05-05 17:14 | -25.53491 | -49.17080 | 2990 ft | 17 kts | 134° |
| 2026-05-05 17:15 | -25.53579 | -49.16983 | 2990 ft | 18 kts | 135° |
| 2026-05-05 17:15 | -25.53611 | -49.16879 | 2989 ft | 15 kts | 92° |
| 2026-05-05 17:15 | -25.53613 | -49.16764 | 2989 ft | 6 kts | 78° |
| 2026-05-05 17:15 | -25.53582 | -49.16756 | 2988 ft | 11 kts | 323° |
| 2026-05-05 17:16 | -25.53399 | -49.16961 | 2989 ft | 80 kts | 314° |
| 2026-05-05 17:16 | -25.52802 | -49.17638 | 3046 ft | 162 kts | 313° |
| 2026-05-05 17:16 | -25.51968 | -49.18707 | 3893 ft | 201 kts | 300° |
| 2026-05-05 17:16 | -25.51871 | -49.20304 | 5247 ft | 228 kts | 251° |
| 2026-05-05 17:17 | -25.52956 | -49.21649 | 6644 ft | 253 kts | 214° |
| 2026-05-05 17:17 | -25.54755 | -49.22099 | 7769 ft | 281 kts | 177° |
| 2026-05-05 17:17 | -25.56572 | -49.21276 | 9368 ft | 290 kts | 145° |
| 2026-05-05 17:17 | -25.58126 | -49.19780 | 10718 ft | 306 kts | 140° |
| 2026-05-05 17:18 | -25.59854 | -49.18255 | 11756 ft | 326 kts | 147° |
| 2026-05-05 17:18 | -25.61805 | -49.16969 | 13316 ft | 329 kts | 154° |
| 2026-05-05 17:18 | -25.63925 | -49.15947 | 14665 ft | 336 kts | 162° |
| 2026-05-05 17:18 | -25.66172 | -49.15347 | 15940 ft | 339 kts | 174° |
| 2026-05-05 17:19 | -25.68530 | -49.15122 | 17253 ft | 342 kts | 179° |
| 2026-05-05 17:19 | -25.70925 | -49.14996 | 18512 ft | 347 kts | 179° |
| 2026-05-05 17:19 | -25.73356 | -49.14760 | 19557 ft | 354 kts | 175° |
| 2026-05-05 17:19 | -25.75819 | -49.14376 | 20595 ft | 361 kts | 175° |
| 2026-05-05 17:20 | -25.78328 | -49.14019 | 21606 ft | 366 kts | 177° |
| 2026-05-05 17:20 | -25.80881 | -49.13726 | 22609 ft | 372 kts | 178° |
| 2026-05-05 17:20 | -25.83478 | -49.13415 | 23599 ft | 379 kts | 177° |
| 2026-05-05 17:20 | -25.86119 | -49.13068 | 24424 ft | 385 kts | 177° |
| 2026-05-05 17:21 | -25.88751 | -49.12723 | 25298 ft | 388 kts | 177° |
| 2026-05-05 17:21 | -25.91449 | -49.12384 | 26202 ft | 392 kts | 178° |
| 2026-05-05 17:21 | -25.94178 | -49.12042 | 27051 ft | 397 kts | 178° |
| 2026-05-05 17:22 | -25.99734 | -49.11332 | 28687 ft | 406 kts | 178° |
| 2026-05-05 17:22 | -26.02559 | -49.10971 | 29498 ft | 411 kts | 178° |
| 2026-05-05 17:22 | -26.05416 | -49.10609 | 30318 ft | 415 kts | 178° |
| 2026-05-05 17:22 | -26.08299 | -49.10242 | 31016 ft | 419 kts | 178° |
| 2026-05-05 17:23 | -26.11170 | -49.09874 | 31690 ft | 423 kts | 178° |
| 2026-05-05 17:23 | -26.14104 | -49.09500 | 32347 ft | 426 kts | 178° |
| 2026-05-05 17:23 | -26.17062 | -49.09122 | 32991 ft | 429 kts | 178° |
| 2026-05-05 17:23 | -26.20038 | -49.08742 | 33720 ft | 429 kts | 178° |
| 2026-05-05 17:24 | -26.22991 | -49.08362 | 34569 ft | 425 kts | 178° |
| 2026-05-05 17:24 | -26.25916 | -49.07986 | 35378 ft | 420 kts | 179° |
| 2026-05-05 17:24 | -26.28803 | -49.07617 | 36193 ft | 415 kts | 179° |
| 2026-05-05 17:24 | -26.31654 | -49.07254 | 36899 ft | 410 kts | 179° |
| 2026-05-05 17:25 | -26.34443 | -49.06898 | 37513 ft | 407 kts | 179° |
| 2026-05-05 17:25 | -26.36335 | -49.06653 | 38004 ft | 403 kts | 179° |
| 2026-05-05 17:25 | -26.40006 | -49.06181 | 38788 ft | 399 kts | 180° |
| 2026-05-05 17:25 | -26.42755 | -49.05831 | 39205 ft | 397 kts | 180° |
| 2026-05-05 17:26 | -26.45495 | -49.05482 | 39518 ft | 397 kts | 180° |
| 2026-05-05 17:26 | -26.48242 | -49.05148 | 39744 ft | 396 kts | 182° |
| 2026-05-05 17:26 | -26.50964 | -49.05138 | 40094 ft | 388 kts | 189° |
| 2026-05-05 17:26 | -26.53630 | -49.05491 | 40328 ft | 383 kts | 195° |
| 2026-05-05 17:27 | -26.56206 | -49.06189 | 40567 ft | 379 kts | 202° |
| 2026-05-05 17:27 | -26.58634 | -49.07186 | 40871 ft | 375 kts | 206° |
| 2026-05-05 17:27 | -26.61057 | -49.08275 | 41144 ft | 375 kts | 206° |
| 2026-05-05 17:27 | -26.63481 | -49.09340 | 41408 ft | 374 kts | 206° |
| 2026-05-05 17:28 | -26.65877 | -49.10428 | 41744 ft | 370 kts | 206° |
| 2026-05-05 17:28 | -26.68288 | -49.11479 | 41851 ft | 373 kts | 206° |
| 2026-05-05 17:28 | -26.70703 | -49.12548 | 42071 ft | 373 kts | 206° |
| 2026-05-05 17:28 | -26.73106 | -49.13635 | 42309 ft | 372 kts | 206° |
| 2026-05-05 17:29 | -26.75509 | -49.14713 | 42552 ft | 372 kts | 206° |
| 2026-05-05 17:29 | -26.77913 | -49.15783 | 42753 ft | 372 kts | 206° |
| 2026-05-05 17:29 | -26.80283 | -49.16837 | 42950 ft | 371 kts | 206° |
| 2026-05-05 17:29 | -26.82681 | -49.17909 | 43136 ft | 371 kts | 206° |
| 2026-05-05 17:30 | -26.85086 | -49.18991 | 43153 ft | 374 kts | 206° |
| 2026-05-05 17:30 | -26.89974 | -49.21174 | 43145 ft | 381 kts | 209° |
| 2026-05-05 17:31 | -26.94946 | -49.23428 | 43157 ft | 390 kts | 205° |
| 2026-05-05 17:31 | -27.00037 | -49.25673 | 43158 ft | 396 kts | 207° |
| 2026-05-05 17:32 | -27.05157 | -49.27997 | 43164 ft | 403 kts | 206° |
| 2026-05-05 17:32 | -27.10403 | -49.30338 | 43157 ft | 408 kts | 206° |
| 2026-05-05 17:33 | -27.15703 | -49.32730 | 43165 ft | 414 kts | 206° |
| 2026-05-05 17:33 | -27.21063 | -49.35143 | 43178 ft | 416 kts | 205° |
| 2026-05-05 17:34 | -27.26395 | -49.37536 | 43155 ft | 414 kts | 206° |
| 2026-05-05 17:34 | -27.31744 | -49.39963 | 43172 ft | 417 kts | 206° |
| 2026-05-05 17:35 | -27.37108 | -49.42374 | 43176 ft | 410 kts | 206° |
| 2026-05-05 17:35 | -27.42348 | -49.44750 | 43169 ft | 403 kts | 206° |
| 2026-05-05 17:36 | -27.47524 | -49.47092 | 43162 ft | 405 kts | 206° |
| 2026-05-05 17:36 | -27.52759 | -49.49464 | 43166 ft | 406 kts | 206° |
| 2026-05-05 17:37 | -27.57729 | -49.52355 | 43171 ft | 400 kts | 216° |
| 2026-05-05 17:37 | -27.62369 | -49.55808 | 43185 ft | 400 kts | 216° |
| 2026-05-05 17:38 | -27.66991 | -49.59226 | 43178 ft | 400 kts | 217° |
| 2026-05-05 17:38 | -27.71630 | -49.62677 | 43187 ft | 399 kts | 217° |
| 2026-05-05 17:39 | -27.76292 | -49.66083 | 43187 ft | 399 kts | 216° |
| 2026-05-05 17:39 | -27.80996 | -49.69432 | 43190 ft | 399 kts | 216° |
| 2026-05-05 17:40 | -27.85703 | -49.72790 | 43185 ft | 401 kts | 216° |
| 2026-05-05 17:40 | -27.90379 | -49.76133 | 43188 ft | 400 kts | 216° |
| 2026-05-05 17:41 | -27.95081 | -49.79485 | 43190 ft | 399 kts | 216° |
| 2026-05-05 17:41 | -27.99770 | -49.82844 | 43187 ft | 399 kts | 216° |
| 2026-05-05 17:42 | -28.04465 | -49.86212 | 43184 ft | 400 kts | 216° |
| 2026-05-05 17:42 | -28.09138 | -49.89557 | 43188 ft | 400 kts | 216° |
| 2026-05-05 17:43 | -28.13837 | -49.92934 | 43184 ft | 400 kts | 216° |
| 2026-05-05 17:43 | -28.18544 | -49.96314 | 43180 ft | 400 kts | 216° |
| 2026-05-05 17:44 | -28.23230 | -49.99685 | 43191 ft | 398 kts | 216° |
| 2026-05-05 17:44 | -28.27871 | -50.03026 | 43186 ft | 397 kts | 216° |
| 2026-05-05 17:45 | -28.32538 | -50.06391 | 43179 ft | 398 kts | 216° |
| 2026-05-05 17:45 | -28.37207 | -50.09761 | 43177 ft | 398 kts | 216° |
| 2026-05-05 17:46 | -28.41886 | -50.13143 | 43163 ft | 398 kts | 216° |
| 2026-05-05 17:46 | -28.46566 | -50.16524 | 43161 ft | 398 kts | 216° |
| 2026-05-05 17:47 | -28.51210 | -50.19888 | 43162 ft | 399 kts | 216° |
| 2026-05-05 17:47 | -28.55880 | -50.23270 | 43158 ft | 397 kts | 217° |
| 2026-05-05 17:48 | -28.60529 | -50.26642 | 43156 ft | 397 kts | 217° |
| 2026-05-05 17:48 | -28.65189 | -50.30028 | 43153 ft | 398 kts | 217° |
| 2026-05-05 17:49 | -28.69827 | -50.33399 | 43153 ft | 399 kts | 217° |
| 2026-05-05 17:49 | -28.74402 | -50.36959 | 43153 ft | 397 kts | 221° |
| 2026-05-05 17:50 | -28.78838 | -50.40730 | 43150 ft | 398 kts | 220° |
| 2026-05-05 17:50 | -28.83259 | -50.44502 | 43155 ft | 396 kts | 220° |
| 2026-05-05 17:51 | -28.87642 | -50.48247 | 43145 ft | 396 kts | 220° |
| 2026-05-05 17:51 | -28.92053 | -50.52015 | 43142 ft | 397 kts | 220° |
| 2026-05-05 17:52 | -28.96472 | -50.55799 | 43142 ft | 397 kts | 220° |
| 2026-05-05 17:52 | -29.00889 | -50.59580 | 43152 ft | 397 kts | 220° |
| 2026-05-05 17:53 | -29.05299 | -50.63365 | 43139 ft | 396 kts | 220° |
| 2026-05-05 17:53 | -29.09674 | -50.67120 | 43137 ft | 395 kts | 220° |
| 2026-05-05 17:54 | -29.13731 | -50.71310 | 43131 ft | 392 kts | 230° |
| 2026-05-05 17:54 | -29.17179 | -50.76132 | 43135 ft | 391 kts | 232° |
| 2026-05-05 17:55 | -29.20616 | -50.80955 | 43137 ft | 391 kts | 232° |
| 2026-05-05 17:55 | -29.24014 | -50.85757 | 43152 ft | 391 kts | 232° |
| 2026-05-05 17:56 | -29.27443 | -50.90598 | 43147 ft | 391 kts | 233° |
| 2026-05-05 17:56 | -29.30865 | -50.95441 | 43156 ft | 391 kts | 233° |
| 2026-05-05 17:57 | -29.34291 | -51.00279 | 43158 ft | 390 kts | 232° |
| 2026-05-05 17:57 | -29.37703 | -51.05123 | 43157 ft | 391 kts | 233° |
| 2026-05-05 17:58 | -29.41103 | -51.09945 | 43153 ft | 392 kts | 233° |
| 2026-05-05 17:58 | -29.44526 | -51.14810 | 43150 ft | 392 kts | 233° |
| 2026-05-05 17:59 | -29.47946 | -51.19666 | 43127 ft | 390 kts | 232° |
| 2026-05-05 17:59 | -29.51354 | -51.24530 | 43101 ft | 391 kts | 233° |
| 2026-05-05 18:00 | -29.54751 | -51.29363 | 43086 ft | 392 kts | 233° |
| 2026-05-05 18:00 | -29.58167 | -51.34242 | 43076 ft | 392 kts | 233° |
| 2026-05-05 18:01 | -29.61585 | -51.39125 | 43076 ft | 392 kts | 233° |
| 2026-05-05 18:01 | -29.65001 | -51.44013 | 43074 ft | 392 kts | 233° |
| 2026-05-05 18:02 | -29.68271 | -51.49012 | 43068 ft | 391 kts | 239° |
| 2026-05-05 18:02 | -29.71099 | -51.54305 | 43066 ft | 391 kts | 239° |
| 2026-05-05 18:03 | -29.73955 | -51.59624 | 43064 ft | 390 kts | 239° |
| 2026-05-05 18:03 | -29.76788 | -51.64929 | 43063 ft | 388 kts | 239° |
| 2026-05-05 18:04 | -29.79617 | -51.70225 | 43062 ft | 388 kts | 239° |
| 2026-05-05 18:04 | -29.82426 | -51.75493 | 43061 ft | 389 kts | 239° |
| 2026-05-05 18:05 | -29.85261 | -51.80814 | 43061 ft | 390 kts | 239° |
| 2026-05-05 18:05 | -29.88090 | -51.86133 | 43051 ft | 389 kts | 239° |
| 2026-05-05 18:06 | -29.90911 | -51.91442 | 43053 ft | 389 kts | 239° |
| 2026-05-05 18:06 | -29.93714 | -51.96728 | 43054 ft | 389 kts | 239° |
| 2026-05-05 18:07 | -29.96539 | -52.02058 | 43055 ft | 390 kts | 239° |
| 2026-05-05 18:07 | -29.99363 | -52.07394 | 43063 ft | 389 kts | 239° |
| 2026-05-05 18:08 | -30.02166 | -52.12704 | 43060 ft | 387 kts | 239° |
| 2026-05-05 18:08 | -30.04966 | -52.18013 | 43059 ft | 387 kts | 239° |
| 2026-05-05 18:09 | -30.07741 | -52.23284 | 43055 ft | 387 kts | 239° |
| 2026-05-05 18:09 | -30.10534 | -52.28595 | 43058 ft | 387 kts | 240° |
| 2026-05-05 18:10 | -30.13318 | -52.33898 | 43052 ft | 385 kts | 240° |
| 2026-05-05 18:10 | -30.16080 | -52.39164 | 43068 ft | 386 kts | 240° |
| 2026-05-05 18:11 | -30.18913 | -52.44440 | 43066 ft | 386 kts | 237° |
| 2026-05-05 18:11 | -30.21922 | -52.49580 | 43065 ft | 386 kts | 238° |
| 2026-05-05 18:12 | -30.24915 | -52.54733 | 43063 ft | 385 kts | 238° |
| 2026-05-05 18:12 | -30.27906 | -52.59875 | 43062 ft | 385 kts | 238° |
| 2026-05-05 18:13 | -30.30874 | -52.64988 | 43064 ft | 385 kts | 238° |
| 2026-05-05 18:13 | -30.33862 | -52.70139 | 43063 ft | 385 kts | 238° |
| 2026-05-05 18:14 | -30.36846 | -52.75292 | 43061 ft | 386 kts | 238° |
| 2026-05-05 18:14 | -30.39838 | -52.80465 | 43064 ft | 386 kts | 238° |
| 2026-05-05 18:15 | -30.42804 | -52.85600 | 43062 ft | 386 kts | 238° |
| 2026-05-05 18:15 | -30.45781 | -52.90760 | 43060 ft | 385 kts | 238° |
| 2026-05-05 18:16 | -30.48750 | -52.95914 | 43061 ft | 385 kts | 238° |
| 2026-05-05 18:16 | -30.51722 | -53.01077 | 43062 ft | 385 kts | 238° |
| 2026-05-05 18:17 | -30.54669 | -53.06205 | 43058 ft | 384 kts | 238° |
| 2026-05-05 18:17 | -30.57631 | -53.11362 | 43059 ft | 384 kts | 238° |
| 2026-05-05 18:18 | -30.60592 | -53.16520 | 43053 ft | 384 kts | 238° |
| 2026-05-05 18:18 | -30.63550 | -53.21683 | 43053 ft | 384 kts | 238° |
| 2026-05-05 18:19 | -30.66487 | -53.26815 | 43055 ft | 385 kts | 238° |
| 2026-05-05 18:19 | -30.69449 | -53.31997 | 43061 ft | 385 kts | 238° |
| 2026-05-05 18:20 | -30.72415 | -53.37189 | 43051 ft | 385 kts | 238° |
| 2026-05-05 18:20 | -30.75380 | -53.42378 | 43055 ft | 385 kts | 238° |
| 2026-05-05 18:21 | -30.78337 | -53.47537 | 43050 ft | 386 kts | 238° |
| 2026-05-05 18:21 | -30.81310 | -53.52744 | 43053 ft | 386 kts | 238° |
| 2026-05-05 18:22 | -30.84280 | -53.57942 | 43052 ft | 385 kts | 238° |
| 2026-05-05 18:22 | -30.87238 | -53.63134 | 43050 ft | 384 kts | 238° |
| 2026-05-05 18:23 | -30.90167 | -53.68278 | 43049 ft | 384 kts | 238° |
| 2026-05-05 18:23 | -30.93117 | -53.73470 | 43049 ft | 385 kts | 238° |
| 2026-05-05 18:24 | -30.96063 | -53.78656 | 43051 ft | 383 kts | 238° |
| 2026-05-05 18:24 | -30.98995 | -53.83829 | 43047 ft | 382 kts | 238° |
| 2026-05-05 18:25 | -31.01908 | -53.88972 | 43045 ft | 383 kts | 238° |
| 2026-05-05 18:25 | -31.04839 | -53.94156 | 43044 ft | 383 kts | 238° |
| 2026-05-05 18:26 | -31.07774 | -53.99350 | 43040 ft | 384 kts | 238° |
| 2026-05-05 18:26 | -31.10715 | -54.04566 | 43037 ft | 385 kts | 239° |
| 2026-05-05 18:27 | -31.13652 | -54.09779 | 43033 ft | 384 kts | 239° |
| 2026-05-05 18:27 | -31.16565 | -54.14957 | 43029 ft | 384 kts | 239° |
| 2026-05-05 18:28 | -31.20954 | -54.22773 | 43043 ft | 384 kts | 239° |
| 2026-05-05 18:28 | -31.23894 | -54.28018 | 43031 ft | 387 kts | 239° |
| 2026-05-05 18:29 | -31.26825 | -54.33251 | 43031 ft | 387 kts | 239° |
| 2026-05-05 18:29 | -31.29772 | -54.38523 | 43031 ft | 387 kts | 239° |
| 2026-05-05 18:30 | -31.32717 | -54.43797 | 43026 ft | 387 kts | 239° |
| 2026-05-05 18:30 | -31.35660 | -54.49074 | 43026 ft | 387 kts | 239° |
| 2026-05-05 18:31 | -31.38579 | -54.54313 | 43022 ft | 386 kts | 239° |
| 2026-05-05 18:31 | -31.41500 | -54.59568 | 43020 ft | 385 kts | 239° |
| 2026-05-05 18:32 | -31.44629 | -54.64651 | 43016 ft | 387 kts | 232° |
| 2026-05-05 18:32 | -31.48519 | -54.69074 | 43017 ft | 391 kts | 227° |
| 2026-05-05 18:33 | -31.52522 | -54.73402 | 43020 ft | 392 kts | 227° |
| 2026-05-05 18:33 | -31.56523 | -54.77704 | 43022 ft | 393 kts | 227° |
| 2026-05-05 18:34 | -31.60551 | -54.82050 | 43020 ft | 393 kts | 227° |
| 2026-05-05 18:34 | -31.64573 | -54.86394 | 43016 ft | 394 kts | 227° |
| 2026-05-05 18:35 | -31.68599 | -54.90747 | 43019 ft | 393 kts | 227° |
| 2026-05-05 18:35 | -31.72594 | -54.95073 | 43019 ft | 393 kts | 227° |
| 2026-05-05 18:36 | -31.76614 | -54.99431 | 43019 ft | 393 kts | 227° |
| 2026-05-05 18:36 | -31.80624 | -55.03784 | 43015 ft | 392 kts | 228° |
| 2026-05-05 18:37 | -31.84614 | -55.08118 | 43007 ft | 390 kts | 228° |
| 2026-05-05 18:37 | -31.88573 | -55.12426 | 43007 ft | 391 kts | 228° |
| 2026-05-05 18:38 | -31.92566 | -55.16777 | 43009 ft | 392 kts | 228° |
| 2026-05-05 18:38 | -31.96567 | -55.21142 | 43007 ft | 392 kts | 228° |
| 2026-05-05 18:39 | -32.00578 | -55.25521 | 43015 ft | 394 kts | 228° |
| 2026-05-05 18:39 | -32.04596 | -55.29916 | 43013 ft | 395 kts | 228° |
| 2026-05-05 18:40 | -32.08595 | -55.34293 | 43015 ft | 394 kts | 228° |
| 2026-05-05 18:40 | -32.12609 | -55.38693 | 43016 ft | 393 kts | 228° |
| 2026-05-05 18:41 | -32.16609 | -55.43082 | 43011 ft | 392 kts | 228° |
| 2026-05-05 18:41 | -32.20596 | -55.47465 | 43006 ft | 391 kts | 228° |
| 2026-05-05 18:42 | -32.24551 | -55.51818 | 43004 ft | 392 kts | 228° |
| 2026-05-05 18:42 | -32.28550 | -55.56224 | 43014 ft | 394 kts | 228° |
| 2026-05-05 18:43 | -32.32564 | -55.60651 | 43005 ft | 396 kts | 229° |
| 2026-05-05 18:43 | -32.36588 | -55.65095 | 43008 ft | 396 kts | 229° |
| 2026-05-05 18:44 | -32.40581 | -55.69512 | 43006 ft | 396 kts | 229° |
| 2026-05-05 18:44 | -32.44607 | -55.73968 | 43007 ft | 396 kts | 229° |
| 2026-05-05 18:45 | -32.48634 | -55.78434 | 43010 ft | 396 kts | 229° |
| 2026-05-05 18:45 | -32.52657 | -55.82902 | 43001 ft | 396 kts | 229° |
| 2026-05-05 18:46 | -32.56680 | -55.87372 | 42999 ft | 396 kts | 229° |
| 2026-05-05 18:46 | -32.60674 | -55.91818 | 42999 ft | 397 kts | 229° |
| 2026-05-05 18:47 | -32.64697 | -55.96301 | 42993 ft | 397 kts | 229° |
| 2026-05-05 18:47 | -32.68720 | -56.00791 | 42999 ft | 396 kts | 229° |
| 2026-05-05 18:48 | -32.72720 | -56.05262 | 42997 ft | 394 kts | 229° |
| 2026-05-05 18:48 | -32.76712 | -56.09728 | 42997 ft | 394 kts | 229° |
| 2026-05-05 18:49 | -32.80701 | -56.14196 | 43000 ft | 394 kts | 229° |
| 2026-05-05 18:49 | -32.84659 | -56.18636 | 43000 ft | 394 kts | 229° |
| 2026-05-05 18:50 | -32.88640 | -56.23108 | 42999 ft | 394 kts | 229° |
| 2026-05-05 18:50 | -32.92629 | -56.27595 | 43000 ft | 395 kts | 229° |
| 2026-05-05 18:51 | -32.96626 | -56.32095 | 42997 ft | 397 kts | 229° |
| 2026-05-05 18:51 | -33.00645 | -56.36633 | 43002 ft | 399 kts | 230° |
| 2026-05-05 18:52 | -33.04633 | -56.41162 | 43000 ft | 398 kts | 230° |
| 2026-05-05 18:52 | -33.08645 | -56.45716 | 42996 ft | 398 kts | 230° |
| 2026-05-05 18:53 | -33.12646 | -56.50265 | 42997 ft | 397 kts | 230° |
| 2026-05-05 18:53 | -33.16609 | -56.54777 | 42995 ft | 396 kts | 230° |
| 2026-05-05 18:54 | -33.20600 | -56.59324 | 42992 ft | 398 kts | 230° |
| 2026-05-05 18:54 | -33.24621 | -56.63909 | 42994 ft | 400 kts | 230° |
| 2026-05-05 18:55 | -33.28651 | -56.68508 | 43000 ft | 401 kts | 230° |
| 2026-05-05 18:55 | -33.32682 | -56.73116 | 42999 ft | 401 kts | 230° |
| 2026-05-05 18:56 | -33.36692 | -56.77708 | 42991 ft | 403 kts | 230° |
| 2026-05-05 18:56 | -33.40746 | -56.82352 | 42990 ft | 403 kts | 230° |
| 2026-05-05 18:57 | -33.44798 | -56.87005 | 42983 ft | 405 kts | 230° |
| 2026-05-05 18:57 | -33.48872 | -56.91689 | 42603 ft | 409 kts | 230° |
| 2026-05-05 18:58 | -33.50894 | -56.94012 | 42070 ft | 406 kts | 230° |
| 2026-05-05 18:58 | -33.52920 | -56.96341 | 41537 ft | 401 kts | 230° |
| 2026-05-05 18:58 | -33.54921 | -56.98646 | 41013 ft | 397 kts | 230° |
| 2026-05-05 18:58 | -33.56901 | -57.00933 | 40489 ft | 395 kts | 230° |
| 2026-05-05 18:59 | -33.58883 | -57.03223 | 39977 ft | 397 kts | 230° |
| 2026-05-05 18:59 | -33.60882 | -57.05531 | 39448 ft | 401 kts | 230° |
| 2026-05-05 18:59 | -33.62900 | -57.07863 | 38916 ft | 404 kts | 230° |
| 2026-05-05 18:59 | -33.64931 | -57.10208 | 38344 ft | 406 kts | 230° |
| 2026-05-05 19:00 | -33.66964 | -57.12556 | 37805 ft | 406 kts | 230° |
| 2026-05-05 19:00 | -33.68974 | -57.14887 | 37282 ft | 409 kts | 230° |
| 2026-05-05 19:00 | -33.71021 | -57.17259 | 36737 ft | 409 kts | 230° |
| 2026-05-05 19:00 | -33.73070 | -57.19630 | 36203 ft | 409 kts | 230° |
| 2026-05-05 19:01 | -33.75117 | -57.22005 | 35653 ft | 409 kts | 230° |
| 2026-05-05 19:01 | -33.77168 | -57.24389 | 35117 ft | 411 kts | 230° |
| 2026-05-05 19:01 | -33.79225 | -57.26779 | 34611 ft | 412 kts | 230° |
| 2026-05-05 19:01 | -33.81284 | -57.29170 | 34126 ft | 412 kts | 231° |
| 2026-05-05 19:02 | -33.83348 | -57.31572 | 33602 ft | 414 kts | 231° |
| 2026-05-05 19:02 | -33.85421 | -57.33987 | 33072 ft | 416 kts | 231° |
| 2026-05-05 19:02 | -33.87480 | -57.36386 | 32567 ft | 418 kts | 231° |
| 2026-05-05 19:02 | -33.89577 | -57.38829 | 32083 ft | 421 kts | 230° |
| 2026-05-05 19:03 | -33.91694 | -57.41300 | 31603 ft | 425 kts | 230° |
| 2026-05-05 19:03 | -33.93821 | -57.43781 | 31140 ft | 427 kts | 230° |
| 2026-05-05 19:03 | -33.95960 | -57.46281 | 30697 ft | 430 kts | 230° |
| 2026-05-05 19:03 | -33.98113 | -57.48798 | 30269 ft | 433 kts | 230° |
| 2026-05-05 19:04 | -34.00277 | -57.51330 | 29834 ft | 435 kts | 230° |
| 2026-05-05 19:04 | -34.02449 | -57.53871 | 29371 ft | 436 kts | 230° |
| 2026-05-05 19:04 | -34.04633 | -57.56433 | 28903 ft | 440 kts | 230° |
| 2026-05-05 19:04 | -34.06828 | -57.59005 | 28438 ft | 441 kts | 230° |
| 2026-05-05 19:05 | -34.09000 | -57.61552 | 27993 ft | 443 kts | 230° |
| 2026-05-05 19:05 | -34.11211 | -57.64148 | 27562 ft | 444 kts | 230° |
| 2026-05-05 19:05 | -34.13431 | -57.66759 | 27146 ft | 447 kts | 230° |
| 2026-05-05 19:05 | -34.15667 | -57.69391 | 26399 ft | 451 kts | 229° |
| 2026-05-05 19:06 | -34.17889 | -57.72000 | 25417 ft | 440 kts | 229° |
| 2026-05-05 19:06 | -34.20059 | -57.74549 | 24462 ft | 430 kts | 229° |
| 2026-05-05 19:06 | -34.22177 | -57.77051 | 23533 ft | 423 kts | 229° |
| 2026-05-05 19:06 | -34.24267 | -57.79522 | 22443 ft | 417 kts | 229° |
| 2026-05-05 19:07 | -34.26310 | -57.81933 | 21203 ft | 415 kts | 229° |
| 2026-05-05 19:07 | -34.28360 | -57.84352 | 19988 ft | 409 kts | 229° |
| 2026-05-05 19:07 | -34.30379 | -57.86737 | 18826 ft | 403 kts | 229° |
| 2026-05-05 19:07 | -34.32367 | -57.89094 | 17603 ft | 398 kts | 229° |
| 2026-05-05 19:08 | -34.34324 | -57.91412 | 16351 ft | 390 kts | 229° |
| 2026-05-05 19:08 | -34.36251 | -57.93691 | 15144 ft | 384 kts | 228° |
| 2026-05-05 19:08 | -34.38141 | -57.95934 | 13986 ft | 378 kts | 228° |
| 2026-05-05 19:08 | -34.39998 | -57.98148 | 12732 ft | 371 kts | 229° |
| 2026-05-05 19:09 | -34.41590 | -58.00549 | 11518 ft | 361 kts | 238° |
| 2026-05-05 19:09 | -34.42816 | -58.03116 | 10354 ft | 353 kts | 246° |
| 2026-05-05 19:09 | -34.43813 | -58.05778 | 9773 ft | 340 kts | 247° |
| 2026-05-05 19:09 | -34.44828 | -58.08341 | 9491 ft | 329 kts | 246° |
| 2026-05-05 19:10 | -34.45777 | -58.10742 | 9213 ft | 304 kts | 248° |
| 2026-05-05 19:10 | -34.46638 | -58.12984 | 9000 ft | 283 kts | 248° |
| 2026-05-05 19:10 | -34.47443 | -58.15071 | 8810 ft | 265 kts | 248° |
| 2026-05-05 19:10 | -34.48202 | -58.17032 | 8635 ft | 251 kts | 248° |
| 2026-05-05 19:11 | -34.48935 | -58.18931 | 8471 ft | 248 kts | 249° |
| 2026-05-05 19:11 | -34.49665 | -58.20827 | 8310 ft | 250 kts | 248° |
| 2026-05-05 19:11 | -34.50407 | -58.22745 | 8153 ft | 252 kts | 249° |
| 2026-05-05 19:11 | -34.51140 | -58.24641 | 7996 ft | 252 kts | 249° |
| 2026-05-05 19:12 | -34.51880 | -58.26560 | 7836 ft | 250 kts | 249° |
| 2026-05-05 19:12 | -34.52617 | -58.28463 | 7670 ft | 249 kts | 249° |
| 2026-05-05 19:12 | -34.53347 | -58.30360 | 7509 ft | 248 kts | 249° |
| 2026-05-05 19:12 | -34.54073 | -58.32248 | 7348 ft | 247 kts | 249° |
| 2026-05-05 19:13 | -34.54799 | -58.34133 | 7186 ft | 247 kts | 250° |
| 2026-05-05 19:13 | -34.55522 | -58.36011 | 7023 ft | 245 kts | 250° |
| 2026-05-05 19:13 | -34.56242 | -58.37882 | 6863 ft | 245 kts | 250° |
| 2026-05-05 19:13 | -34.56962 | -58.39754 | 6702 ft | 245 kts | 250° |
| 2026-05-05 19:14 | -34.57670 | -58.41597 | 6542 ft | 244 kts | 250° |
| 2026-05-05 19:14 | -34.58380 | -58.43446 | 6378 ft | 237 kts | 250° |
| 2026-05-05 19:14 | -34.59059 | -58.45209 | 6214 ft | 225 kts | 250° |
| 2026-05-05 19:14 | -34.59712 | -58.46910 | 6076 ft | 219 kts | 251° |
| 2026-05-05 19:15 | -34.60338 | -58.48547 | 6313 ft | 215 kts | 252° |
| 2026-05-05 19:15 | -34.60971 | -58.50216 | 6547 ft | 218 kts | 251° |
| 2026-05-05 19:15 | -34.61619 | -58.51905 | 6747 ft | 223 kts | 251° |
| 2026-05-05 19:15 | -34.62276 | -58.53616 | 6964 ft | 226 kts | 250° |
| 2026-05-05 19:16 | -34.62947 | -58.55368 | 6980 ft | 229 kts | 250° |
| 2026-05-05 19:16 | -34.63615 | -58.57113 | 6979 ft | 227 kts | 250° |
| 2026-05-05 19:16 | -34.64276 | -58.58840 | 6976 ft | 222 kts | 250° |
| 2026-05-05 19:16 | -34.64907 | -58.60484 | 6975 ft | 208 kts | 250° |
| 2026-05-05 19:17 | -34.65505 | -58.62052 | 6975 ft | 202 kts | 251° |
| 2026-05-05 19:17 | -34.66084 | -58.63577 | 6972 ft | 202 kts | 251° |
| 2026-05-05 19:17 | -34.66685 | -58.65158 | 6691 ft | 210 kts | 251° |
| 2026-05-05 19:17 | -34.67298 | -58.66767 | 6393 ft | 210 kts | 251° |
| 2026-05-05 19:18 | -34.67912 | -58.68375 | 6075 ft | 210 kts | 251° |
| 2026-05-05 19:18 | -34.68527 | -58.69989 | 5753 ft | 211 kts | 250° |
| 2026-05-05 19:18 | -34.69144 | -58.71608 | 5433 ft | 211 kts | 250° |
| 2026-05-05 19:18 | -34.69761 | -58.73232 | 5115 ft | 212 kts | 249° |
| 2026-05-05 19:19 | -34.70376 | -58.74841 | 4984 ft | 205 kts | 248° |
| 2026-05-05 19:19 | -34.71204 | -58.76231 | 4975 ft | 206 kts | 229° |
| 2026-05-05 19:19 | -34.72000 | -58.77633 | 4973 ft | 201 kts | 254° |
| 2026-05-05 19:19 | -34.72343 | -58.79249 | 4975 ft | 201 kts | 259° |
| 2026-05-05 19:20 | -34.72678 | -58.80896 | 4975 ft | 201 kts | 259° |
| 2026-05-05 19:20 | -34.73013 | -58.82544 | 4972 ft | 201 kts | 259° |
| 2026-05-05 19:20 | -34.73348 | -58.84197 | 4974 ft | 202 kts | 259° |
| 2026-05-05 19:20 | -34.73625 | -58.85864 | 4973 ft | 200 kts | 269° |
| 2026-05-05 19:21 | -34.73475 | -58.87531 | 4934 ft | 200 kts | 281° |
| 2026-05-05 19:21 | -34.73225 | -58.89207 | 4795 ft | 202 kts | 281° |
| 2026-05-05 19:21 | -34.72979 | -58.90840 | 4633 ft | 191 kts | 281° |
| 2026-05-05 19:21 | -34.72747 | -58.92388 | 4467 ft | 182 kts | 278° |
| 2026-05-05 19:22 | -34.73024 | -58.93835 | 4280 ft | 186 kts | 235° |
| 2026-05-05 19:22 | -34.74120 | -58.94697 | 4115 ft | 193 kts | 202° |
| 2026-05-05 19:22 | -34.75450 | -58.94680 | 3941 ft | 196 kts | 163° |
| 2026-05-05 19:22 | -34.76524 | -58.93707 | 3770 ft | 195 kts | 124° |
| 2026-05-05 19:23 | -34.76895 | -58.92164 | 3604 ft | 190 kts | 86° |
| 2026-05-05 19:23 | -34.76489 | -58.90697 | 3447 ft | 181 kts | 57° |
| 2026-05-05 19:23 | -34.76176 | -58.89252 | 3295 ft | 177 kts | 91° |
| 2026-05-05 19:23 | -34.76349 | -58.87801 | 3157 ft | 172 kts | 100° |
| 2026-05-05 19:24 | -34.76577 | -58.86366 | 2940 ft | 177 kts | 99° |
| 2026-05-05 19:24 | -34.76808 | -58.84906 | 2714 ft | 175 kts | 100° |
| 2026-05-05 19:24 | -34.77042 | -58.83461 | 2476 ft | 172 kts | 100° |
| 2026-05-05 19:24 | -34.77267 | -58.82063 | 2232 ft | 166 kts | 100° |
| 2026-05-05 19:25 | -34.77478 | -58.80744 | 2175 ft | 152 kts | 100° |
| 2026-05-05 19:25 | -34.77679 | -58.79493 | 2172 ft | 151 kts | 100° |
| 2026-05-05 19:25 | -34.77881 | -58.78235 | 2170 ft | 153 kts | 99° |
| 2026-05-05 19:25 | -34.78082 | -58.76969 | 2174 ft | 153 kts | 100° |
| 2026-05-05 19:26 | -34.78286 | -58.75703 | 2176 ft | 153 kts | 100° |
| 2026-05-05 19:26 | -34.78488 | -58.74448 | 2173 ft | 153 kts | 99° |
| 2026-05-05 19:26 | -34.78693 | -58.73177 | 2177 ft | 153 kts | 101° |
| 2026-05-05 19:26 | -34.78953 | -58.71917 | 2176 ft | 154 kts | 102° |
| 2026-05-05 19:27 | -34.79166 | -58.70636 | 2176 ft | 154 kts | 99° |
| 2026-05-05 19:27 | -34.79394 | -58.69366 | 2176 ft | 154 kts | 102° |
| 2026-05-05 19:27 | -34.79626 | -58.68093 | 2142 ft | 154 kts | 101° |
| 2026-05-05 19:27 | -34.79843 | -58.66822 | 1953 ft | 153 kts | 102° |
| 2026-05-05 19:28 | -34.80084 | -58.65571 | 1756 ft | 151 kts | 101° |
| 2026-05-05 19:28 | -34.80283 | -58.64352 | 1560 ft | 147 kts | 101° |
| 2026-05-05 19:28 | -34.80498 | -58.63244 | 1378 ft | 127 kts | 102° |
| 2026-05-05 19:28 | -34.80673 | -58.62192 | 1213 ft | 127 kts | 99° |
| 2026-05-05 19:29 | -34.80864 | -58.61144 | 1015 ft | 128 kts | 102° |
| 2026-05-05 19:29 | -34.81053 | -58.60105 | 854 ft | 123 kts | 100° |
| 2026-05-05 19:29 | -34.81233 | -58.59088 | 729 ft | 125 kts | 99° |
| 2026-05-05 19:29 | -34.81404 | -58.58053 | 562 ft | 124 kts | 100° |
| 2026-05-05 19:30 | -34.81591 | -58.57021 | 342 ft | 123 kts | 101° |
| 2026-05-05 19:30 | -34.81783 | -58.56031 | 194 ft | 118 kts | 98° |
| 2026-05-05 19:30 | -34.81952 | -58.55070 | 87 ft | 110 kts | 101° |
| 2026-05-05 19:30 | -34.82090 | -58.54315 | 66 ft | 67 kts | 100° |
| 2026-05-05 19:31 | -34.82142 | -58.53988 | 64 ft | 18 kts | 84° |
| 2026-05-05 19:31 | -34.82089 | -58.53861 | 64 ft | 15 kts | 47° |
| 2026-05-05 19:31 | -34.82031 | -58.53791 | 64 ft | 13 kts | 45° |
| 2026-05-05 19:31 | -34.81957 | -58.53698 | 61 ft | 17 kts | 45° |
| 2026-05-05 19:32 | -34.81864 | -58.53585 | 63 ft | 21 kts | 45° |
| 2026-05-05 19:32 | -34.81756 | -58.53453 | 60 ft | 24 kts | 45° |
| 2026-05-05 19:32 | -34.81635 | -58.53305 | 61 ft | 26 kts | 44° |
| 2026-05-05 19:32 | -34.81518 | -58.53186 | 61 ft | 20 kts | 30° |
| 2026-05-05 19:33 | -34.81365 | -58.53208 | 63 ft | 27 kts | 345° |
| 2026-05-05 19:33 | -34.81195 | -58.53282 | 65 ft | 23 kts | 318° |
| 2026-05-05 19:33 | -34.81163 | -58.53426 | 63 ft | 17 kts | 275° |
| 2026-05-05 19:33 | -34.81111 | -58.53549 | 62 ft | 18 kts | 344° |
| 2026-05-05 19:34 | -34.81055 | -58.53599 | 60 ft | 11 kts | 294° |
| 2026-05-05 19:34 | -34.81054 | -58.53661 | 62 ft | 12 kts | 256° |
| 2026-05-05 19:34 | -34.81059 | -58.53692 | 62 ft | 0 kts | 259° |